Time;durP1;ratioP1;P1;durP2;ratioP2;P2;SDS_P1;SDS_P2;PMS_P1;PMS_P2;Temp;Humidity;BMP_temperature;BMP_pressure;BME280_temperature;BME280_humidity;BME280_pressure;Samples;Min_cycle;Max_cycle;Signal;HPM_P1;HPM_P2
2023/06/20 00:02:08;;;;;;;;;;;;;;;;;;2202075;59;1880;-19
2023/06/20 00:04:38;;;;;;;;;;;;;;;;;;2202013;67;1567;-19
2023/06/20 00:07:08;;;;;;;;;;;;;;;;;;2202253;67;1753;-20
2023/06/20 00:09:38;;;;;;;;;;;;;;;;;;2202622;67;2675;-19
2023/06/20 00:12:09;;;;;;;;;;;;;;;;;;2198235;67;1844;-20
2023/06/20 00:14:39;;;;;;;;;;;;;;;;;;2202738;67;1907;-19
2023/06/20 00:17:09;;;;;;;;;;;;;;;;;;2202659;67;2011;-19
2023/06/20 00:19:40;;;;;;;;;;;;;;;;;;2199832;67;2547;-19
2023/06/20 00:22:10;;;;;;;;;;;;;;;;;;2203587;67;2179;-20
2023/06/20 00:24:41;;;;;;;;;;;;;;;;;;2203956;62;1491;-19
2023/06/20 00:27:11;;;;;;;;;;;;;;;;;;2202922;59;2393;-20
2023/06/20 00:29:41;;;;;;;;;;;;;;;;;;2202982;67;2765;-19
2023/06/20 00:32:11;;;;;;;;;;;;;;;;;;2202599;59;2449;-19
2023/06/20 00:34:44;;;;;;;;;;;;;;;;;;2198198;59;2236;-19
2023/06/20 00:37:15;;;;;;;;;;;;;;;;;;2197668;59;1981;-19
2023/06/20 00:39:45;;;;;;;;;;;;;;;;;;2202699;59;1746;-19
2023/06/20 00:42:19;;;;;;;;;;;;;;;;;;2199047;59;2500;-19
2023/06/20 00:44:50;;;;;;;;;;;;;;;;;;2202279;67;2821;-19
2023/06/20 00:47:20;;;;;;;;;;;;;;;;;;2201810;59;1654;-20
2023/06/20 00:49:51;;;;;;;;;;;;;;;;;;2202011;67;1778;-20
2023/06/20 00:52:22;;;;;;;;;;;;;;;;;;2202383;59;2704;-20
2023/06/20 00:54:52;;;;;;;;;;;;;;;;;;2202813;67;1798;-20
2023/06/20 00:57:23;;;;;;;;;;;;;;;;;;2202142;59;2386;-20
2023/06/20 00:59:53;;;;;;;;;;;;;;;;;;2202504;59;2249;-21
2023/06/20 01:02:23;;;;;;;;;;;;;;;;;;2202262;59;1774;-21
2023/06/20 01:04:54;;;;;;;;;;;;;;;;;;2199014;59;1736;-20
2023/06/20 01:07:38;;;;;;;;;;;;;;;;;;2202366;67;1883;-20
2023/06/20 01:10:19;;;;;;;;;;;;;;;;;;2202193;59;1823;-20
2023/06/20 01:12:55;;;;;;;;;;;;;;;;;;2198933;67;2422;-20
2023/06/20 01:15:38;;;;;;;;;;;;;;;;;;2201967;67;1752;-20
2023/06/20 01:18:30;;;;;;;;;;;;;;;;;;2202325;67;1947;-19
2023/06/20 01:21:07;;;;;;;;;;;;;;;;;;2202328;67;1896;-21
2023/06/20 01:23:58;;;;;;;;;;;;;;;;;;2201959;67;1920;-20
2023/06/20 01:26:41;;;;;;;;;;;;;;;;;;2202497;59;2290;-20
2023/06/20 01:29:20;;;;;;;;;;;;;;;;;;2197323;59;2007;-20
2023/06/20 01:31:54;;;;;;;;;;;;;;;;;;2202890;59;3035;-21
2023/06/20 01:34:27;;;;;;;;;;;;;;;;;;2202285;67;1952;-21
2023/06/20 01:36:58;;;;;;;;;;;;;;;;;;2202374;67;2030;-20
2023/06/20 01:39:40;;;;;;;;;;;;;;;;;;2201763;67;1887;-21
2023/06/20 01:42:10;;;;;;;;;;;;;;;;;;2201521;59;2073;-20
2023/06/20 01:44:41;;;;;;;;;;;;;;;;;;2202640;67;1977;-20
2023/06/20 01:47:14;;;;;;;;;;;;;;;;;;2200822;59;2337;-21
2023/06/20 01:49:51;;;;;;;;;;;;;;;;;;2202462;59;1917;-20
2023/06/20 01:52:25;;;;;;;;;;;;;;;;;;2201960;59;1612;-20
2023/06/20 01:54:57;;;;;;;;;;;;;;;;;;2202488;67;2229;-20
2023/06/20 01:57:28;;;;;;;;;;;;;;;;;;2201992;59;2159;-21
2023/06/20 01:59:58;;;;;;;;;;;;;;;;;;2201802;59;2516;-20
2023/06/20 02:02:29;;;;;;;;;;;;;;;;;;2202773;59;2156;-20
2023/06/20 02:05:00;;;;;;;;;;;;;;;;;;2202693;59;1878;-21
2023/06/20 02:07:35;;;;;;;;;;;;;;;;;;2198291;67;1854;-20
2023/06/20 02:10:05;;;;;;;;;;;;;;;;;;2202526;59;1811;-21
2023/06/20 02:12:36;;;;;;;;;;;;;;;;;;2202193;67;1834;-19
2023/06/20 02:15:07;;;;;;;;;;;;;;;;;;2197841;67;1741;-21
2023/06/20 02:17:38;;;;;;;;;;;;;;;;;;2202552;67;2334;-20
2023/06/20 02:20:09;;;;;;;;;;;;;;;;;;2198254;67;1959;-21
2023/06/20 02:22:44;;;;;;;;;;;;;;;;;;2202235;67;1734;-20
2023/06/20 02:25:20;;;;;;;;;;;;;;;;;;2202390;67;2073;-19
2023/06/20 02:27:52;;;;;;;;;;;;;;;;;;2198102;67;3409;-20
2023/06/20 02:30:24;;;;;;;;;;;;;;;;;;2201949;59;2510;-20
2023/06/20 02:32:56;;;;;;;;;;;;;;;;;;2201485;67;1771;-20
2023/06/20 02:35:27;;;;;;;;;;;;;;;;;;2198202;59;2743;-20
2023/06/20 02:37:59;;;;;;;;;;;;;;;;;;2201612;67;2002;-20
2023/06/20 02:40:29;;;;;;;;;;;;;;;;;;2201132;59;2014;-20
2023/06/20 02:43:01;;;;;;;;;;;;;;;;;;2201254;67;1842;-20
2023/06/20 02:45:32;;;;;;;;;;;;;;;;;;2202035;59;1991;-20
2023/06/20 02:48:08;;;;;;;;;;;;;;;;;;2201874;59;2378;-20
2023/06/20 02:50:47;;;;;;;;;;;;;;;;;;2197305;67;2038;-20
2023/06/20 02:53:31;;;;;;;;;;;;;;;;;;2198396;67;2037;-20
2023/06/20 02:56:08;;;;;;;;;;;;;;;;;;2201669;59;1959;-20
2023/06/20 02:58:41;;;;;;;;;;;;;;;;;;2198958;59;2087;-20
2023/06/20 03:01:14;;;;;;;;;;;;;;;;;;2202015;59;2406;-21
2023/06/20 03:03:45;;;;;;;;;;;;;;;;;;2201396;59;2079;-19
2023/06/20 03:06:16;;;;;;;;;;;;;;;;;;2201062;59;2576;-20
2023/06/20 03:08:50;;;;;;;;;;;;;;;;;;2195573;67;1839;-20
2023/06/20 03:11:21;;;;;;;;;;;;;;;;;;2201615;67;2118;-20
2023/06/20 03:13:51;;;;;;;;;;;;;;;;;;2202744;67;1744;-19
2023/06/20 03:16:26;;;;;;;;;;;;;;;;;;2200910;67;1998;-19
2023/06/20 03:18:56;;;;;;;;;;;;;;;;;;2201984;67;1480;-19
2023/06/20 03:21:27;;;;;;;;;;;;;;;;;;2197824;67;2710;-20
2023/06/20 03:23:57;;;;;;;;;;;;;;;;;;2201675;59;1488;-19
2023/06/20 03:26:27;;;;;;;;;;;;;;;;;;2201777;59;1676;-20
2023/06/20 03:28:57;;;;;;;;;;;;;;;;;;2202193;67;2912;-20
2023/06/20 03:31:28;;;;;;;;;;;;;;;;;;2202367;59;2015;-20
2023/06/20 03:33:58;;;;;;;;;;;;;;;;;;2201331;67;1972;-20
2023/06/20 03:36:28;;;;;;;;;;;;;;;;;;2198124;67;2452;-20
2023/06/20 03:38:58;;;;;;;;;;;;;;;;;;2202182;59;1813;-20
2023/06/20 03:41:29;;;;;;;;;;;;;;;;;;2201935;59;2237;-20
2023/06/20 03:43:59;;;;;;;;;;;;;;;;;;2201840;67;1598;-20
2023/06/20 03:46:32;;;;;;;;;;;;;;;;;;2202442;67;1862;-19
2023/06/20 03:49:02;;;;;;;;;;;;;;;;;;2202911;67;1935;-20
2023/06/20 03:51:33;;;;;;;;;;;;;;;;;;2202260;59;1889;-19
2023/06/20 03:54:03;;;;;;;;;;;;;;;;;;2202966;67;1824;-20
2023/06/20 03:56:33;;;;;;;;;;;;;;;;;;2202954;59;1929;-20
2023/06/20 03:59:03;;;;;;;;;;;;;;;;;;2196520;59;2025;-20
2023/06/20 04:01:33;;;;;;;;;;;;;;;;;;2202240;59;3044;-21
2023/06/20 04:04:05;;;;;;;;;;;;;;;;;;2199812;59;2123;-21
2023/06/20 04:06:35;;;;;;;;;;;;;;;;;;2198758;67;2613;-22
2023/06/20 04:09:05;;;;;;;;;;;;;;;;;;2203119;59;1678;-21
2023/06/20 04:11:36;;;;;;;;;;;;;;;;;;2202515;67;1541;-21
2023/06/20 04:14:06;;;;;;;;;;;;;;;;;;2202572;64;1735;-21
2023/06/20 04:16:37;;;;;;;;;;;;;;;;;;2202580;67;2088;-21
2023/06/20 04:19:07;;;;;;;;;;;;;;;;;;2199451;59;2107;-21
2023/06/20 04:21:38;;;;;;;;;;;;;;;;;;2202380;67;2229;-21
2023/06/20 04:24:08;;;;;;;;;;;;;;;;;;2202389;59;2268;-21
2023/06/20 04:26:39;;;;;;;;;;;;;;;;;;2196778;59;2165;-20
2023/06/20 04:29:10;;;;;;;;;;;;;;;;;;2198836;67;1916;-21
2023/06/20 04:31:41;;;;;;;;;;;;;;;;;;2198116;59;1943;-21
2023/06/20 04:34:23;;;;;;;;;;;;;;;;;;2196114;59;1593;-20
2023/06/20 04:36:53;;;;;;;;;;;;;;;;;;2197828;67;1943;-21
2023/06/20 04:39:29;;;;;;;;;;;;;;;;;;2199534;59;1685;-21
2023/06/20 04:41:59;;;;;;;;;;;;;;;;;;2202243;59;1815;-21
2023/06/20 04:44:29;;;;;;;;;;;;;;;;;;2202667;67;1918;-20
2023/06/20 04:46:59;;;;;;;;;;;;;;;;;;2202490;59;2655;-20
2023/06/20 04:49:30;;;;;;;;;;;;;;;;;;2202345;59;2461;-21
2023/06/20 04:52:00;;;;;;;;;;;;;;;;;;2202095;59;1652;-22
2023/06/20 04:54:31;;;;;;;;;;;;;;;;;;2202281;67;1238;-21
2023/06/20 04:57:02;;;;;;;;;;;;;;;;;;2202460;59;2306;-21
2023/06/20 04:59:34;;;;;;;;;;;;;;;;;;2202142;59;2263;-21
2023/06/20 05:02:08;;;;;;;;;;;;;;;;;;2200919;59;1478;-21
2023/06/20 05:04:38;;;;;;;;;;;;;;;;;;2201660;59;2021;-21
2023/06/20 05:07:08;;;;;;;;;;;;;;;;;;2201829;59;2159;-22
2023/06/20 05:09:38;;;;;;;;;;;;;;;;;;2201704;59;2303;-21
2023/06/20 05:12:09;;;;;;;;;;;;;;;;;;2202390;59;1371;-21
2023/06/20 05:14:39;;;;;;;;;;;;;;;;;;2202304;67;1336;-22
2023/06/20 05:17:12;;;;;;;;;;;;;;;;;;2202260;59;1921;-21
2023/06/20 05:19:42;;;;;;;;;;;;;;;;;;2201962;67;1512;-22
2023/06/20 05:22:13;;;;;;;;;;;;;;;;;;2198168;59;1457;-21
2023/06/20 05:24:46;;;;;;;;;;;;;;;;;;2201005;59;2240;-20
2023/06/20 05:27:17;;;;;;;;;;;;;;;;;;2201049;59;2527;-21
2023/06/20 05:29:47;;;;;;;;;;;;;;;;;;2201597;59;2269;-21
2023/06/20 05:32:17;;;;;;;;;;;;;;;;;;2202477;59;1285;-21
2023/06/20 05:34:47;;;;;;;;;;;;;;;;;;2198972;67;1464;-21
2023/06/20 05:37:18;;;;;;;;;;;;;;;;;;2202212;67;1940;-21
2023/06/20 05:39:48;;;;;;;;;;;;;;;;;;2202372;67;2051;-21
2023/06/20 05:42:18;;;;;;;;;;;;;;;;;;2202460;59;1932;-21
2023/06/20 05:44:48;;;;;;;;;;;;;;;;;;2199041;67;1498;-21
2023/06/20 05:47:18;;;;;;;;;;;;;;;;;;2202560;67;1523;-21
2023/06/20 05:49:49;;;;;;;;;;;;;;;;;;2202199;59;2428;-21
2023/06/20 05:52:19;;;;;;;;;;;;;;;;;;2201602;59;2453;-21
2023/06/20 05:54:53;;;;;;;;;;;;;;;;;;2202429;67;1274;-21
2023/06/20 05:57:23;;;;;;;;;;;;;;;;;;2202625;59;2106;-21
2023/06/20 05:59:53;;;;;;;;;;;;;;;;;;2202879;59;2403;-21
2023/06/20 06:02:24;;;;;;;;;;;;;;;;;;2200486;59;2222;-21
2023/06/20 06:04:54;;;;;;;;;;;;;;;;;;2197028;59;2489;-22
2023/06/20 06:07:24;;;;;;;;;;;;;;;;;;2201078;67;1373;-22
2023/06/20 06:09:54;;;;;;;;;;;;;;;;;;2197983;67;1340;-22
2023/06/20 06:12:24;;;;;;;;;;;;;;;;;;2197502;59;2423;-21
2023/06/20 06:14:55;;;;;;;;;;;;;;;;;;2202343;67;1188;-21
2023/06/20 06:17:26;;;;;;;;;;;;;;;;;;2201805;67;2007;-21
2023/06/20 06:19:57;;;;;;;;;;;;;;;;;;2201885;67;1643;-21
2023/06/20 06:22:27;;;;;;;;;;;;;;;;;;2201763;67;1594;-21
2023/06/20 06:24:57;;;;;;;;;;;;;;;;;;2202295;67;1455;-20
2023/06/20 06:27:27;;;;;;;;;;;;;;;;;;2202146;59;1750;-21
2023/06/20 06:29:58;;;;;;;;;;;;;;;;;;2198894;59;1456;-20
2023/06/20 06:32:28;;;;;;;;;;;;;;;;;;2197841;59;1775;-21
2023/06/20 06:34:59;;;;;;;;;;;;;;;;;;2201750;67;1548;-20
2023/06/20 06:37:30;;;;;;;;;;;;;;;;;;2197143;67;1945;-20
2023/06/20 06:40:01;;;;;;;;;;;;;;;;;;2198572;59;1830;-20
2023/06/20 06:42:31;;;;;;;;;;;;;;;;;;2199006;59;2263;-20
2023/06/20 06:45:02;;;;;;;;;;;;;;;;;;2200956;59;2387;-20
2023/06/20 06:47:34;;;;;;;;;;;;;;;;;;2198262;59;1890;-20
2023/06/20 06:50:04;;;;;;;;;;;;;;;;;;2201660;67;1767;-21
2023/06/20 06:52:35;;;;;;;;;;;;;;;;;;2201303;60;1728;-20
2023/06/20 06:55:05;;;;;;;;;;;;;;;;;;2201184;67;1690;-20
2023/06/20 06:57:35;;;;;;;;;;;;;;;;;;2201607;59;3395;-20
2023/06/20 07:00:14;;;;;;;;;;;;;;;;;;2202197;59;2248;-20
2023/06/20 07:02:44;;;;;;;;;;;;;;;;;;2202481;59;2259;-20
2023/06/20 07:05:15;;;;;;;;;;;;;;;;;;2201528;67;1758;-20
2023/06/20 07:07:45;;;;;;;;;;;;;;;;;;2202260;59;2336;-20
2023/06/20 07:10:15;;;;;;;;;;;;;;;;;;2201297;67;3037;-20
2023/06/20 07:12:45;;;;;;;;;;;;;;;;;;2201424;67;1974;-20
2023/06/20 07:15:16;;;;;;;;;;;;;;;;;;2201335;67;1831;-20
2023/06/20 07:17:46;;;;;;;;;;;;;;;;;;2198343;67;2480;-20
2023/06/20 07:20:17;;;;;;;;;;;;;;;;;;2201361;67;1539;-20
2023/06/20 07:22:47;;;;;;;;;;;;;;;;;;2198407;67;2535;-20
2023/06/20 07:25:19;;;;;;;;;;;;;;;;;;2201630;67;1772;-20
2023/06/20 07:27:49;;;;;;;;;;;;;;;;;;2201408;59;2108;-20
2023/06/20 07:30:19;;;;;;;;;;;;;;;;;;2197182;59;2111;-20
2023/06/20 07:32:49;;;;;;;;;;;;;;;;;;2201632;67;2863;-20
2023/06/20 07:35:20;;;;;;;;;;;;;;;;;;2201639;67;1748;-20
2023/06/20 07:37:50;;;;;;;;;;;;;;;;;;2197287;59;2533;-21
2023/06/20 07:40:20;;;;;;;;;;;;;;;;;;2201487;59;1662;-20
2023/06/20 07:42:50;;;;;;;;;;;;;;;;;;2196361;59;2697;-18
2023/06/20 07:45:21;;;;;;;;;;;;;;;;;;2199203;60;2793;-17
2023/06/20 07:47:51;;;;;;;;;;;;;;;;;;2201631;59;2284;-18
2023/06/20 07:50:21;;;;;;;;;;;;;;;;;;2200145;59;2520;-18
2023/06/20 07:52:51;;;;;;;;;;;;;;;;;;2200823;59;1916;-18
2023/06/20 07:55:22;;;;;;;;;;;;;;;;;;2197378;59;1751;-17
2023/06/20 07:57:53;;;;;;;;;;;;;;;;;;2199609;59;2543;-17
2023/06/20 08:00:25;;;;;;;;;;;;;;;;;;2201428;59;2277;-18
2023/06/20 08:02:55;;;;;;;;;;;;;;;;;;2201072;59;2041;-19
2023/06/20 08:05:25;;;;;;;;;;;;;;;;;;2201676;67;1739;-17
2023/06/20 08:07:56;;;;;;;;;;;;;;;;;;2197782;67;2563;-18
2023/06/20 08:10:26;;;;;;;;;;;;;;;;;;2198200;59;1803;-18
2023/06/20 08:12:56;;;;;;;;;;;;;;;;;;2200972;64;1635;-18
2023/06/20 08:15:26;;;;;;;;;;;;;;;;;;2200018;59;2738;-17
2023/06/20 08:17:56;;;;;;;;;;;;;;;;;;2201300;67;1993;-18
2023/06/20 08:20:27;;;;;;;;;;;;;;;;;;2201178;67;1972;-18
2023/06/20 08:22:57;;;;;;;;;;;;;;;;;;2201356;67;2305;-18
2023/06/20 08:25:27;;;;;;;;;;;;;;;;;;2202035;67;1602;-18
2023/06/20 08:27:59;;;;;;;;;;;;;;;;;;2201386;59;2672;-18
2023/06/20 08:30:29;;;;;;;;;;;;;;;;;;2201609;59;2171;-18
2023/06/20 08:33:01;;;;;;;;;;;;;;;;;;2201321;67;2872;-17
2023/06/20 08:35:31;;;;;;;;;;;;;;;;;;2201318;59;2309;-17
2023/06/20 08:38:01;;;;;;;;;;;;;;;;;;2201572;67;2005;-17
2023/06/20 08:40:32;;;;;;;;;;;;;;;;;;2200924;59;2238;-18
2023/06/20 08:43:02;;;;;;;;;;;;;;;;;;2201535;67;2713;-17
2023/06/20 08:45:32;;;;;;;;;;;;;;;;;;2199568;59;2287;-18
2023/06/20 08:48:03;;;;;;;;;;;;;;;;;;2201747;59;3027;-18
2023/06/20 08:50:33;;;;;;;;;;;;;;;;;;2201279;59;2050;-18
2023/06/20 08:53:04;;;;;;;;;;;;;;;;;;2201397;59;2056;-17
2023/06/20 08:55:36;;;;;;;;;;;;;;;;;;2200576;59;2638;-17
2023/06/20 08:58:08;;;;;;;;;;;;;;;;;;2196123;59;2146;-17
2023/06/20 09:00:38;;;;;;;;;;;;;;;;;;2201036;59;2288;-17
2023/06/20 09:03:08;;;;;;;;;;;;;;;;;;2202343;59;1782;-17
2023/06/20 09:05:42;;;;;;;;;;;;;;;;;;2201571;59;2052;-17
2023/06/20 09:08:16;;;;;;;;;;;;;;;;;;2202079;67;2014;-17
2023/06/20 09:10:46;;;;;;;;;;;;;;;;;;2202176;59;1760;-18
2023/06/20 09:16:02;;;;;;;;;;;;;;;;;;2194482;59;2189;-17
2023/06/20 09:18:34;;;;;;;;;;;;;;;;;;2196532;59;2482;-17
2023/06/20 09:21:05;;;;;;;;;;;;;;;;;;2193704;67;1957;-17
2023/06/20 09:23:35;;;;;;;;;;;;;;;;;;2196112;67;2656;-18
2023/06/20 09:26:17;;;;;;;;;;;;;;;;;;2197048;59;1808;-17
2023/06/20 09:28:48;;;;;;;;;;;;;;;;;;2196253;59;2910;-17
2023/06/20 09:31:19;;;;;;;;;;;;;;;;;;2196797;59;2589;-17
2023/06/20 09:33:50;;;;;;;;;;;;;;;;;;2195595;67;1984;-17
2023/06/20 09:36:21;;;;;;;;;;;;;;;;;;2194989;67;2000;-18
2023/06/20 09:38:52;;;;;;;;;;;;;;;;;;2194886;59;1872;-18
2023/06/20 09:41:22;;;;;;;;;;;;;;;;;;2196821;67;1850;-17
2023/06/20 09:43:52;;;;;;;;;;;;;;;;;;2196764;67;2405;-18
2023/06/20 09:46:23;;;;;;;;;;;;;;;;;;2195556;67;2332;-17
2023/06/20 09:48:53;;;;;;;;;;;;;;;;;;2197148;59;2094;-17
2023/06/20 09:51:25;;;;;;;;;;;;;;;;;;2197470;59;1740;-17
2023/06/20 09:54:05;;;;;;;;;;;;;;;;;;2196601;67;1771;-17
2023/06/20 09:56:43;;;;;;;;;;;;;;;;;;2197803;59;1992;-18
2023/06/20 09:59:14;;;;;;;;;;;;;;;;;;2196717;59;3007;-18
2023/06/20 10:01:45;;;;;;;;;;;;;;;;;;2197228;67;2015;-18
2023/06/20 10:04:16;;;;;;;;;;;;;;;;;;2196792;67;2223;-17
2023/06/20 10:06:47;;;;;;;;;;;;;;;;;;2197490;67;1828;-17
2023/06/20 10:09:17;;;;;;;;;;;;;;;;;;2196136;67;1756;-17
2023/06/20 10:11:48;;;;;;;;;;;;;;;;;;2197088;60;2363;-17
2023/06/20 10:14:18;;;;;;;;;;;;;;;;;;2196823;59;2274;-17
2023/06/20 10:16:51;;;;;;;;;;;;;;;;;;2197191;67;1936;-18
2023/06/20 10:19:22;;;;;;;;;;;;;;;;;;2196884;67;1973;-18
2023/06/20 10:21:59;;;;;;;;;;;;;;;;;;2196146;59;2326;-18
2023/06/20 10:24:30;;;;;;;;;;;;;;;;;;2197317;67;1229;-18
2023/06/20 10:27:00;;;;;;;;;;;;;;;;;;2197131;67;1281;-18
2023/06/20 10:29:38;;;;;;;;;;;;;;;;;;2197835;67;1860;-17
2023/06/20 10:32:09;;;;;;;;;;;;;;;;;;2196898;59;1352;-17
2023/06/20 10:34:39;;;;;;;;;;;;;;;;;;2197660;67;1476;-18
2023/06/20 10:37:14;;;;;;;;;;;;;;;;;;2197119;67;1940;-19
2023/06/20 10:39:54;;;;;;;;;;;;;;;;;;2197554;67;1161;-19
2023/06/20 10:42:43;;;;;;;;;;;;;;;;;;2197554;67;1412;-19
2023/06/20 10:45:19;;;;;;;;;;;;;;;;;;2196449;59;2139;-19
2023/06/20 10:47:50;;;;;;;;;;;;;;;;;;2196634;59;2184;-19
2023/06/20 10:50:21;;;;;;;;;;;;;;;;;;2196741;59;1989;-18
2023/06/20 10:52:51;;;;;;;;;;;;;;;;;;2197019;59;1836;-19
2023/06/20 10:55:22;;;;;;;;;;;;;;;;;;2197191;67;1757;-19
2023/06/20 10:57:53;;;;;;;;;;;;;;;;;;2196724;59;2391;-18
2023/06/20 11:00:24;;;;;;;;;;;;;;;;;;2198245;59;2376;-19
2023/06/20 11:02:55;;;;;;;;;;;;;;;;;;2193326;59;2143;-20
2023/06/20 11:05:26;;;;;;;;;;;;;;;;;;2196339;59;1765;-19
2023/06/20 11:08:00;;;;;;;;;;;;;;;;;;2197226;59;1819;-18
2023/06/20 11:10:31;;;;;;;;;;;;;;;;;;2197645;67;2087;-18
2023/06/20 11:13:02;;;;;;;;;;;;;;;;;;2196989;67;1862;-18
2023/06/20 11:15:34;;;;;;;;;;;;;;;;;;2197469;59;1683;-18
2023/06/20 11:18:07;;;;;;;;;;;;;;;;;;2196721;67;2004;-17
2023/06/20 11:20:39;;;;;;;;;;;;;;;;;;2197166;67;2010;-19
2023/06/20 11:23:10;;;;;;;;;;;;;;;;;;2193930;67;1775;-19
2023/06/20 11:25:44;;;;;;;;;;;;;;;;;;2196806;67;1691;-18
2023/06/20 11:28:15;;;;;;;;;;;;;;;;;;2196534;67;2007;-19
2023/06/20 11:30:50;;;;;;;;;;;;;;;;;;2193861;59;1968;-19
2023/06/20 11:33:21;;;;;;;;;;;;;;;;;;2197499;59;1823;-20
2023/06/20 11:35:52;;;;;;;;;;;;;;;;;;2196812;59;2014;-18
2023/06/20 11:38:23;;;;;;;;;;;;;;;;;;2196698;67;1957;-19
2023/06/20 11:41:04;;;;;;;;;;;;;;;;;;2196986;67;1543;-20
2023/06/20 11:43:38;;;;;;;;;;;;;;;;;;2197165;67;1534;-19
2023/06/20 11:46:11;;;;;;;;;;;;;;;;;;2196540;67;2177;-19
2023/06/20 11:48:47;;;;;;;;;;;;;;;;;;2195783;59;2784;-18
2023/06/20 11:51:21;;;;;;;;;;;;;;;;;;2196784;59;1605;-19
2023/06/20 11:54:12;;;;;;;;;;;;;;;;;;2196697;67;1347;-18
2023/06/20 11:56:44;;;;;;;;;;;;;;;;;;2196543;67;1948;-19
2023/06/20 11:59:20;;;;;;;;;;;;;;;;;;2196862;59;2383;-19
2023/06/20 12:01:51;;;;;;;;;;;;;;;;;;2196892;59;1262;-18
2023/06/20 12:04:27;;;;;;;;;;;;;;;;;;2197041;67;1829;-19
2023/06/20 12:07:04;;;;;;;;;;;;;;;;;;2197951;59;1312;-17
2023/06/20 12:09:40;;;;;;;;;;;;;;;;;;2197967;67;1483;-19
2023/06/20 12:12:10;;;;;;;;;;;;;;;;;;2197473;67;1786;-19
2023/06/20 12:14:41;;;;;;;;;;;;;;;;;;2197196;67;1809;-18
2023/06/20 12:17:11;;;;;;;;;;;;;;;;;;2196737;67;1934;-18
2023/06/20 12:19:51;;;;;;;;;;;;;;;;;;2194129;67;1162;-18
2023/06/20 12:22:22;;;;;;;;;;;;;;;;;;2197128;67;1795;-18
2023/06/20 12:24:52;;;;;;;;;;;;;;;;;;2193423;59;2322;-18
2023/06/20 12:27:24;;;;;;;;;;;;;;;;;;2196367;59;1437;-18
2023/06/20 12:29:54;;;;;;;;;;;;;;;;;;2197784;67;1647;-19
2023/06/20 12:32:25;;;;;;;;;;;;;;;;;;2194253;59;1442;-18
2023/06/20 12:34:55;;;;;;;;;;;;;;;;;;2196677;67;1381;-18
2023/06/20 12:37:26;;;;;;;;;;;;;;;;;;2197350;67;1945;-18
2023/06/20 12:39:56;;;;;;;;;;;;;;;;;;2194041;67;1427;-18
2023/06/20 12:42:28;;;;;;;;;;;;;;;;;;2196749;67;1281;-17
2023/06/20 12:44:58;;;;;;;;;;;;;;;;;;2196899;67;1188;-19
2023/06/20 12:47:28;;;;;;;;;;;;;;;;;;2196857;59;2209;-18
2023/06/20 12:50:02;;;;;;;;;;;;;;;;;;2196040;59;2619;-18
2023/06/20 12:52:32;;;;;;;;;;;;;;;;;;2196731;59;2194;-19
2023/06/20 12:55:05;;;;;;;;;;;;;;;;;;2198771;59;2064;-18
2023/06/20 12:57:35;;;;;;;;;;;;;;;;;;2197890;59;2136;-19
2023/06/20 13:00:06;;;;;;;;;;;;;;;;;;2197473;59;2562;-18
2023/06/20 13:02:36;;;;;;;;;;;;;;;;;;2197180;67;1239;-18
2023/06/20 13:05:08;;;;;;;;;;;;;;;;;;2196249;59;2491;-18
2023/06/20 13:07:39;;;;;;;;;;;;;;;;;;2197429;59;1388;-18
2023/06/20 13:10:10;;;;;;;;;;;;;;;;;;2196406;59;1389;-21
2023/06/20 13:12:40;;;;;;;;;;;;;;;;;;2197381;67;1698;-18
2023/06/20 13:15:12;;;;;;;;;;;;;;;;;;2197233;59;1181;-20
2023/06/20 13:17:43;;;;;;;;;;;;;;;;;;2197689;67;2020;-17
2023/06/20 13:20:13;;;;;;;;;;;;;;;;;;2196942;67;1709;-18
2023/06/20 13:22:43;;;;;;;;;;;;;;;;;;2195553;67;1669;-18
2023/06/20 13:25:13;;;;;;;;;;;;;;;;;;2196493;67;1466;-19
2023/06/20 13:27:48;;;;;;;;;;;;;;;;;;2196116;59;2078;-18
2023/06/20 13:30:18;;;;;;;;;;;;;;;;;;2196543;59;1588;-18
2023/06/20 13:32:48;;;;;;;;;;;;;;;;;;2197449;67;1267;-18
2023/06/20 13:35:23;;;;;;;;;;;;;;;;;;2196697;67;1644;-17
2023/06/20 13:37:53;;;;;;;;;;;;;;;;;;2197301;67;2001;-18
2023/06/20 13:40:30;;;;;;;;;;;;;;;;;;2196949;67;2130;-18
2023/06/20 13:43:05;;;;;;;;;;;;;;;;;;2196640;59;1960;-18
2023/06/20 13:45:35;;;;;;;;;;;;;;;;;;2197512;67;1225;-19
2023/06/20 13:48:05;;;;;;;;;;;;;;;;;;2196735;59;2221;-18
2023/06/20 13:50:37;;;;;;;;;;;;;;;;;;2195424;59;3010;-19
2023/06/20 13:53:08;;;;;;;;;;;;;;;;;;2197514;59;1986;-19
2023/06/20 13:55:38;;;;;;;;;;;;;;;;;;2196790;59;6008;-18
2023/06/20 13:58:08;;;;;;;;;;;;;;;;;;2196173;59;2076;-18
2023/06/20 14:00:39;;;;;;;;;;;;;;;;;;2197074;59;2393;-18
2023/06/20 14:03:09;;;;;;;;;;;;;;;;;;2196527;59;1769;-18
2023/06/20 14:05:39;;;;;;;;;;;;;;;;;;2193685;60;2287;-18
2023/06/20 14:08:09;;;;;;;;;;;;;;;;;;2197110;59;1983;-18
2023/06/20 14:10:39;;;;;;;;;;;;;;;;;;2197225;67;2056;-18
2023/06/20 14:13:11;;;;;;;;;;;;;;;;;;2194205;67;1777;-18
2023/06/20 14:15:42;;;;;;;;;;;;;;;;;;2197785;59;1394;-18
2023/06/20 14:18:12;;;;;;;;;;;;;;;;;;2195866;67;1941;-18
2023/06/20 14:20:42;;;;;;;;;;;;;;;;;;2196060;59;2312;-18
2023/06/20 14:23:12;;;;;;;;;;;;;;;;;;2196682;60;1805;-18
2023/06/20 14:25:43;;;;;;;;;;;;;;;;;;2196664;59;2692;-19
2023/06/20 14:28:15;;;;;;;;;;;;;;;;;;2193896;67;2111;-19
2023/06/20 14:30:47;;;;;;;;;;;;;;;;;;2196631;59;1786;-18
2023/06/20 14:33:20;;;;;;;;;;;;;;;;;;2195822;67;1775;-19
2023/06/20 14:35:50;;;;;;;;;;;;;;;;;;2196909;67;1800;-19
2023/06/20 14:38:20;;;;;;;;;;;;;;;;;;2196423;67;2967;-17
2023/06/20 14:40:50;;;;;;;;;;;;;;;;;;2196522;59;2482;-19
2023/06/20 14:43:23;;;;;;;;;;;;;;;;;;2196615;59;2618;-19
2023/06/20 14:45:54;;;;;;;;;;;;;;;;;;2196728;67;1909;-19
2023/06/20 14:48:24;;;;;;;;;;;;;;;;;;2197518;59;2164;-19
2023/06/20 14:50:54;;;;;;;;;;;;;;;;;;2195155;59;2429;-19
2023/06/20 14:53:24;;;;;;;;;;;;;;;;;;2193233;59;2275;-18
2023/06/20 14:55:55;;;;;;;;;;;;;;;;;;2196414;67;2554;-19
2023/06/20 14:58:25;;;;;;;;;;;;;;;;;;2195784;59;2092;-18
2023/06/20 15:00:56;;;;;;;;;;;;;;;;;;2196775;59;2150;-18
2023/06/20 15:03:27;;;;;;;;;;;;;;;;;;2193531;59;2063;-18
2023/06/20 15:05:57;;;;;;;;;;;;;;;;;;2196520;67;1853;-19
2023/06/20 15:08:29;;;;;;;;;;;;;;;;;;2196293;59;2408;-18
2023/06/20 15:11:00;;;;;;;;;;;;;;;;;;2195839;59;2370;-17
2023/06/20 15:13:30;;;;;;;;;;;;;;;;;;2198234;54;3684;-18
2023/06/20 15:16:00;;;;;;;;;;;;;;;;;;2197322;59;2517;-18
2023/06/20 15:18:37;;;;;;;;;;;;;;;;;;2195732;59;2116;-18
2023/06/20 15:21:07;;;;;;;;;;;;;;;;;;2197235;59;1869;-18
2023/06/20 15:23:39;;;;;;;;;;;;;;;;;;2199308;67;2403;-18
2023/06/20 15:26:09;;;;;;;;;;;;;;;;;;2198332;59;2495;-18
2023/06/20 15:28:42;;;;;;;;;;;;;;;;;;2199176;67;1847;-18
2023/06/20 15:31:14;;;;;;;;;;;;;;;;;;2194690;59;2066;-18
2023/06/20 15:33:44;;;;;;;;;;;;;;;;;;2192913;67;1786;-18
2023/06/20 15:36:15;;;;;;;;;;;;;;;;;;2197945;59;2303;-18
2023/06/20 15:38:45;;;;;;;;;;;;;;;;;;2193546;59;2226;-18
2023/06/20 15:41:15;;;;;;;;;;;;;;;;;;2197116;59;2445;-18
2023/06/20 15:43:45;;;;;;;;;;;;;;;;;;2198170;67;2051;-18
2023/06/20 15:46:16;;;;;;;;;;;;;;;;;;2197689;59;2030;-18
2023/06/20 15:48:56;;;;;;;;;;;;;;;;;;2198352;59;1937;-18
2023/06/20 15:51:28;;;;;;;;;;;;;;;;;;2197000;59;2620;-18
2023/06/20 15:53:58;;;;;;;;;;;;;;;;;;2194489;67;2522;-18
2023/06/20 15:56:29;;;;;;;;;;;;;;;;;;2198387;59;2187;-18
2023/06/20 15:58:59;;;;;;;;;;;;;;;;;;2198785;59;2075;-18
2023/06/20 16:01:34;;;;;;;;;;;;;;;;;;2195758;59;2352;-18
2023/06/20 16:04:04;;;;;;;;;;;;;;;;;;2199259;67;2362;-18
2023/06/20 16:06:35;;;;;;;;;;;;;;;;;;2195600;59;1866;-18
2023/06/20 16:09:05;;;;;;;;;;;;;;;;;;2195898;67;2455;-18
2023/06/20 16:11:35;;;;;;;;;;;;;;;;;;2198620;67;1807;-18
2023/06/20 16:14:05;;;;;;;;;;;;;;;;;;2195524;59;2531;-18
2023/06/20 16:16:36;;;;;;;;;;;;;;;;;;2198830;67;1957;-18
2023/06/20 16:19:06;;;;;;;;;;;;;;;;;;2198957;67;1792;-19
2023/06/20 16:21:36;;;;;;;;;;;;;;;;;;2199005;60;1524;-18
2023/06/20 16:24:06;;;;;;;;;;;;;;;;;;2194743;59;2492;-18
2023/06/20 16:26:36;;;;;;;;;;;;;;;;;;2198512;59;1885;-19
2023/06/20 16:29:07;;;;;;;;;;;;;;;;;;2195196;60;1936;-18
2023/06/20 16:31:37;;;;;;;;;;;;;;;;;;2199121;59;2021;-18
2023/06/20 16:34:07;;;;;;;;;;;;;;;;;;2198224;62;2299;-18
2023/06/20 16:36:41;;;;;;;;;;;;;;;;;;2198755;67;1924;-18
2023/06/20 16:39:11;;;;;;;;;;;;;;;;;;2195489;67;1760;-18
2023/06/20 16:41:44;;;;;;;;;;;;;;;;;;2198568;67;1746;-18
2023/06/20 16:44:14;;;;;;;;;;;;;;;;;;2198022;67;2017;-18
2023/06/20 16:46:44;;;;;;;;;;;;;;;;;;2195703;59;1751;-18
2023/06/20 16:49:14;;;;;;;;;;;;;;;;;;2196924;59;2051;-18
2023/06/20 16:51:45;;;;;;;;;;;;;;;;;;2197881;59;2878;-18
2023/06/20 16:54:18;;;;;;;;;;;;;;;;;;2196182;59;3433;-18
2023/06/20 16:56:48;;;;;;;;;;;;;;;;;;2198669;60;1941;-18
2023/06/20 16:59:18;;;;;;;;;;;;;;;;;;2198148;59;2318;-18
2023/06/20 17:01:48;;;;;;;;;;;;;;;;;;2198994;67;2053;-18
2023/06/20 17:04:18;;;;;;;;;;;;;;;;;;2195341;67;1735;-18
2023/06/20 17:06:49;;;;;;;;;;;;;;;;;;2199155;67;1700;-18
2023/06/20 17:09:19;;;;;;;;;;;;;;;;;;2193240;59;2648;-18
2023/06/20 17:11:50;;;;;;;;;;;;;;;;;;2199510;59;2477;-18
2023/06/20 17:14:20;;;;;;;;;;;;;;;;;;2197642;59;2396;-18
2023/06/20 17:16:50;;;;;;;;;;;;;;;;;;2198519;67;2068;-18
2023/06/20 17:19:20;;;;;;;;;;;;;;;;;;2197948;67;1659;-18
2023/06/20 17:21:51;;;;;;;;;;;;;;;;;;2199197;67;1831;-18
2023/06/20 17:24:21;;;;;;;;;;;;;;;;;;2198041;67;1743;-18
2023/06/20 17:26:51;;;;;;;;;;;;;;;;;;2199114;67;1797;-18
2023/06/20 17:29:21;;;;;;;;;;;;;;;;;;2199118;67;1872;-18
2023/06/20 17:31:54;;;;;;;;;;;;;;;;;;2198423;59;1773;-18
2023/06/20 17:34:24;;;;;;;;;;;;;;;;;;2198990;67;2020;-18
2023/06/20 17:36:54;;;;;;;;;;;;;;;;;;2198625;59;1937;-18